Ackley, Iowa
Current Conditions -  °F | °C
As of 11:55 PM on Saturday 20 Dec 2014 (Local Time) from KIFA Reporting Station
Haze Haze  
Wind Chill: 27°   Ceiling: 400
Heat Index: 33°   Visibility: 2mi
Dew Point: 32°   Wind: 6mph
Humidity: 98%   Direction: 140°SE
Pressure: 30.08"   Gusts: NA
Location:  42.55°N, 93.05°W
Report Text: KIFA 210555Z AUTO 14005KT 2SM BR OVC004 00/00 A3008 RMK AO2 T00030000 10004 20000 400041016
Loading
Personal Weather Stations






























Interactive Weather Map New forecast layout! Learn more

10-Day Weather Forecast

Advertisements
Track Severe Weather on mobile